Terminal Aerodrome Forecast
Issued by NWS

Home | Current Version | Previous Version | Text Only | Print | Product List | Glossary On
Versions: 1 2 3 4 5 6 7 8 9 10 11 12 13 14 15 16 17 18 19
000
FTAK31 PAJN 161928 AAA
TAFAGY
TAF AMD
PAGY 161928Z 1619/1718 21030G45KT 4SM RA BR SCT015 OVC035
     FM162200 21030G55KT 6SM -RA OVC035
     FM170900 21025G40KT P6SM -SHRA OVC035
      AMD LTD TO CLD VIS AND WIND=

USA.gov is the U.S. government's official web portal to all federal, state and local government web resources and services.